Latest Coastal Weather Observations for Robe Airport

IDV60701

Issued at 4:21 am EST Wednesday 4 May 2016 (issued every 10 minutes, with the page automatically refreshed every 10 minutes)

About coastal observations | Map of coastal stations | Coastal observations for VIC | Marine services | Other Formats
Station Details ID: 026105 Name: ROBE AIRFIELD Lat: -37.18 Lon: 139.81 Height: 3.0 m
Data from the previous 72 hours. | See also: Recent months at Robe Airport
Date/Time
EST
Temp

°C
Wind Pressure Rain
since 9am
mm
Weather Cloud Vis
km
Sea
Height
m
Swell
Dir
 
Speed
knots
Gust
knots
hPa Trend Height
m
Period
s
Dir
04/04:00am 11.7 WSW 5 8 1011.7 - 1.6 - - - - - - -
04/03:30am 11.8 W 6 10 1011.6 - 1.4 - - - - - - -
04/03:00am 12.6 W 6 11 1011.6 - 1.4 - - - - - - -
04/02:30am 12.7 WSW 8 13 1011.4 - 1.4 - - - - - - -
04/02:00am 13.2 W 6 12 1011.1 - 1.4 - - - - - - -
04/01:30am 12.9 W 6 12 1010.9 - 1.4 - - - - - - -
04/01:00am 13.0 WSW 8 14 1010.8 - 1.4 - - - - - - -
04/12:30am 13.0 WSW 8 13 1010.8 - 1.4 - - - - - - -
04/12:00am 13.2 W 8 15 1010.7 - 1.4 - - - - - - -
 
Date/Time
EST
Temp

°C
Wind Pressure Rain
since 9am
mm
Weather Cloud Vis
km
Sea
Height
m
Swell
Dir
 
Speed
knots
Gust
knots
hPa Trend Height
m
Period
s
Dir
03/11:30pm 13.4 WSW 9 16 1010.7 - 1.4 - - - - - - -
03/11:00pm 13.5 WSW 9 15 1010.8 - 1.4 - - - - - - -
03/10:30pm 13.8 WSW 8 14 1010.7 - 1.4 - - - - - - -
03/10:00pm 14.1 WSW 10 16 1010.2 - 1.4 - - - - - - -
03/09:30pm 13.6 W 11 17 1009.9 - 1.4 - - - - - - -
03/09:00pm 13.3 W 11 19 1009.4 - 1.4 - - - - - - -
03/08:30pm 13.7 W 11 19 1009.1 - 1.4 - - - - - - -
03/08:00pm 12.8 W 12 19 1008.6 - 1.4 - - - - - - -
03/07:30pm 12.9 W 10 15 1008.0 - 1.4 - - - - - - -
03/07:00pm 13.0 W 10 18 1007.8 - 1.4 - - - - - - -
03/06:30pm 12.8 W 10 16 1006.9 - 1.4 Recent precip. - - - - - -
03/06:00pm 11.7 WSW 14 31 1006.7 - 1.4 - - - - - - -
03/05:54pm 12.2 W 15 31 1006.6 - 1.4 - - - - - - -
03/05:30pm 13.8 W 11 20 1006.0 - 1.2 - - - - - - -
03/05:00pm 11.9 WNW 12 24 1005.7 - 1.2 - - - - - - -
03/04:55pm 12.2 W 15 33 1005.6 - 1.2 - - - - - - -
03/04:30pm 15.3 W 11 18 1004.9 - 0.8 - - - - - - -
03/04:00pm 15.3 W 15 24 1004.4 - 0.8 - - - - - - -
03/03:30pm 15.9 W 13 21 1003.9 - 0.8 - - - - - - -
03/03:00pm 15.6 W 15 26 1003.8 - 0.8 - - - - - - -
03/02:58pm 15.6 W 15 26 1003.8 - 0.8 - - - - - - -
03/02:30pm 15.5 W 14 25 1003.6 - 0.8 - - - - - - -
03/02:00pm 15.3 WSW 10 18 1003.4 - 0.8 - - - - - - -
03/01:30pm 13.5 WSW 15 29 1003.6 - 0.8 - - - - - - -
03/01:02pm 16.0 W 15 26 1002.8 - 0.8 - - - - - - -
03/01:00pm 16.2 W 14 26 1002.8 - 0.8 - - - - - - -
03/12:57pm 16.1 W 15 26 1002.8 - 0.8 - - - - - - -
03/12:30pm 15.6 WSW 13 23 1002.8 - 0.8 - - - - - - -
03/12:00pm 14.9 W 14 23 1002.7 - 0.8 - - - - - - -
03/11:43am 14.8 W 15 26 1002.5 - 0.8 - - - - - - -
03/11:30am 14.2 WSW 14 24 1002.4 - 0.8 - - - - - - -
03/11:17am 14.7 W 15 29 1002.4 - 0.6 - - - - - - -
03/11:00am 15.0 W 16 25 1001.8 - 0.6 - - - - - - -
03/10:30am 15.0 W 17 30 1001.3 - 0.6 - - - - - - -
03/10:00am 13.9 W 17 36 1000.8 - 0.4 - - - - - - -
03/09:52am 15.1 W 16 36 1001.1 - 0.2 - - - - - - -
03/09:36am 15.6 WNW 15 26 1000.3 - 0.0 - - - - - - -
03/09:30am 15.0 WNW 16 26 1000.2 - 8.0 Recent precip. - - - - - -
03/09:06am 16.0 WNW 16 27 1000.0 - 7.8 - - - - - - -
03/09:00am 15.4 WNW 17 25 1000.0 - 7.8 - - - - - - -
03/08:42am 15.6 WNW 15 26 999.9 - 7.8 - - - - - - -
03/08:30am 15.9 NW 16 22 999.7 - 5.4 - - - - - - -
03/08:00am 15.4 NW 15 21 999.6 - 5.4 - - - - - - -
03/07:30am 14.5 WNW 21 33 999.7 - 5.2 - - - - - - -
03/07:00am 15.7 NW 19 31 999.5 - 3.2 - - - - - - -
03/06:30am 16.1 NW 24 35 999.2 - 1.2 Rain - - - - - -
03/06:02am 16.1 NW 24 35 999.5 - 0.8 - - - - - - -
03/06:00am 16.2 NW 25 35 999.5 - 0.8 - - - - - - -
03/05:32am 16.7 NW 24 34 999.5 - 0.8 - - - - - - -
03/05:30am 16.7 NW 25 34 999.5 - 0.8 - - - - - - -
03/05:00am 16.5 NW 24 34 999.6 - 0.8 - - - - - - -
03/04:30am 15.7 NW 23 33 999.8 - 0.8 - - - - - - -
03/04:00am 16.2 NW 26 37 1000.0 - 0.2 - - - - - - -
03/03:30am 16.4 NW 25 35 1000.2 - 0.0 - - - - - - -
03/03:00am 16.8 NNW 24 37 1000.7 - 0.0 - - - - - - -
03/02:30am 16.4 NW 24 36 1001.3 - 0.0 - - - - - - -
03/02:00am 17.0 NW 21 33 1002.0 - 0.0 - - - - - - -
03/01:55am 17.0 NW 22 33 1002.0 - 0.0 - - - - - - -
03/01:30am 17.1 NNW 23 33 1002.1 - 0.0 - - - - - - -
03/01:01am 17.0 NNW 22 35 1002.5 - 0.0 - - - - - - -
03/01:00am 17.0 NNW 22 31 1002.4 - 0.0 - - - - - - -
03/12:30am 16.9 NW 22 34 1003.2 - 0.0 - - - - - - -
03/12:07am 16.9 NW 23 34 1003.3 - 0.0 - - - - - - -
03/12:00am 16.7 NW 22 29 1003.4 - 0.0 - - - - - - -
 
Date/Time
EST
Temp

°C
Wind Pressure Rain
since 9am
mm
Weather Cloud Vis
km
Sea
Height
m
Swell
Dir
 
Speed
knots
Gust
knots
hPa Trend Height
m
Period
s
Dir
02/11:30pm 16.4 NNW 21 34 1003.6 - 0.0 - - - - - - -
02/11:23pm 16.4 NNW 21 34 1003.7 - 0.0 - - - - - - -
02/11:00pm 16.6 NNW 22 31 1004.2 - 0.0 - - - - - - -
02/10:35pm 16.5 NNW 22 32 1004.4 - 0.0 - - - - - - -
02/10:30pm 16.6 NNW 21 29 1004.4 - 0.0 - - - - - - -
02/10:00pm 16.5 NNW 20 30 1004.7 - 0.0 - - - - - - -
02/09:30pm 16.4 NNW 20 27 1004.8 - 0.0 - - - - - - -
02/09:03pm 16.5 NNW 19 29 1005.3 - 0.0 - - - - - - -
02/09:00pm 16.6 NW 20 29 1005.2 - 0.0 - - - - - - -
02/08:33pm 16.7 NW 21 32 1005.3 - 0.0 - - - - - - -
02/08:30pm 16.7 NW 22 32 1005.3 - 0.0 - - - - - - -
02/08:00pm 16.9 NNW 19 28 1005.4 - 0.0 - - - - - - -
02/07:30pm 16.7 NW 19 29 1005.7 - 0.0 - - - - - - -
02/07:00pm 16.4 NNW 18 26 1005.7 - 0.0 - - - - - - -
02/06:30pm 16.3 NNW 18 26 1005.7 - 0.0 - - - - - - -
02/06:00pm 16.2 NNW 19 26 1005.7 - 0.0 - - - - - - -
02/05:30pm 16.1 NNW 16 23 1005.8 - 0.0 - - - - - - -
02/05:22pm 16.1 NNW 19 29 1005.7 - 0.0 - - - - - - -
02/05:00pm 16.1 NNW 20 28 1005.8 - 0.0 - - - - - - -
02/04:30pm 16.5 NNW 20 27 1006.1 - 0.0 - - - - - - -
02/04:00pm 17.2 NNW 21 30 1006.3 - 0.0 - - - - - - -
02/03:44pm 17.6 NNW 21 32 1006.5 - 0.0 - - - - - - -
02/03:30pm 17.3 NNW 22 31 1006.5 - 0.0 - - - - - - -
02/03:03pm 17.2 NNW 18 31 1006.7 - 0.0 - - - - - - -
02/03:00pm 17.2 NNW 18 25 1006.8 - 0.0 - - - - - - -
02/02:30pm 17.9 NW 19 27 1007.0 - 0.0 - - - - - - -
02/02:15pm 17.4 NW 18 29 1007.2 - 0.0 - - - - - - -
02/02:00pm 17.2 NNW 19 27 1007.5 - 0.0 - - - - - - -
02/01:30pm 18.1 NNW 21 29 1008.0 - 0.0 - - - - - - -
02/01:00pm 18.0 NW 21 31 1008.3 - 0.0 - - - - - - -
02/12:59pm 17.8 NW 21 31 1008.3 - 0.0 - - - - - - -
02/12:30pm 17.8 NW 21 29 1008.8 - 0.0 - - - - - - -
02/12:00pm 16.9 NNW 19 28 1009.0 - 0.0 - - - - - - -
02/11:30am 17.1 NW 19 29 1009.3 - 0.0 - - - - - - -
02/11:00am 17.3 NW 20 31 1009.5 - 0.0 - - - - - - -
02/10:59am 17.7 NW 20 31 1009.6 - 0.0 - - - - - - -
02/10:30am 16.2 NNW 19 26 1009.8 - 0.0 - - - - - - -
02/10:01am 16.6 NW 18 29 1010.0 - 0.0 - - - - - - -
02/10:00am 16.6 NW 18 26 1009.9 - 0.0 - - - - - - -
02/09:40am 16.0 NW 19 29 1010.1 - 0.0 - - - - - - -
02/09:30am 16.5 NNW 18 27 1010.0 - 0.0 - - - - - - -
02/09:09am 16.4 NNW 17 27 1010.2 - 0.0 - - - - - - -
02/09:00am 16.1 NNW 17 24 1010.3 - 0.0 - - - - - - -
02/08:30am 15.3 NNW 17 25 1010.3 - 0.0 - - - - - - -
02/08:00am 15.1 NNW 17 24 1010.5 - 0.0 - - - - - - -
02/07:30am 14.9 NNW 17 24 1010.6 - 0.0 - - - - - - -
02/07:00am 14.8 NW 15 23 1010.6 - 0.0 - - - - - - -
02/06:30am 14.7 NW 15 22 1010.8 - 0.0 - - - - - - -
02/06:00am 14.4 NW 13 19 1011.1 - 0.0 - - - - - - -
02/05:30am 14.7 NW 15 22 1011.3 - 0.0 - - - - - - -
02/05:00am 14.8 NW 16 22 1011.5 - 0.0 - - - - - - -
02/04:30am 14.9 NW 15 21 1011.6 - 0.0 - - - - - - -
02/04:00am 14.6 NW 15 23 1011.9 - 0.0 - - - - - - -
02/03:30am 14.6 NW 11 15 1012.3 - 0.0 - - - - - - -
02/03:00am 14.6 WNW 13 18 1012.7 - 0.0 - - - - - - -
02/02:30am 14.6 NW 14 19 1012.9 - 0.0 - - - - - - -
02/02:00am 14.4 NW 12 17 1013.2 - 0.0 - - - - - - -
02/01:30am 14.1 NW 12 16 1013.5 - 0.0 - - - - - - -
02/01:00am 13.8 NW 10 14 1013.7 - 0.0 - - - - - - -
02/12:30am 13.1 WNW 10 17 1014.4 - 0.0 - - - - - - -
02/12:00am 12.9 WNW 4 6 1014.6 - 0.0 - - - - - - -
 
Date/Time
EST
Temp

°C
Wind Pressure Rain
since 9am
mm
Weather Cloud Vis
km
Sea
Height
m
Swell
Dir
 
Speed
knots
Gust
knots
hPa Trend Height
m
Period
s
Dir
01/11:30pm 13.4 NW 7 10 1014.9 - 0.0 - - - - - - -
01/11:00pm 14.0 NW 11 16 1015.4 - 0.0 - - - - - - -
01/10:39pm 13.6 NW 16 25 1015.7 - 0.0 - - - - - - -
01/10:30pm 13.9 WNW 10 15 1015.6 - 0.0 - - - - - - -
01/10:00pm 13.9 NW 9 13 1015.8 - 0.0 - - - - - - -
01/09:30pm 14.4 WNW 9 13 1015.9 - 0.0 - - - - - - -
01/09:00pm 13.9 WNW 7 11 1015.9 - 0.0 - - - - - - -
01/08:30pm 13.1 WNW 4 7 1015.9 - 0.0 - - - - - - -
01/08:00pm 13.2 WNW 7 11 1015.9 - 0.0 - - - - - - -
01/07:30pm 11.9 WNW 4 6 1015.9 - 0.0 - - - - - - -
01/07:00pm 12.4 WNW 3 5 1015.8 - 0.0 - - - - - - -
01/06:30pm 13.2 W 4 6 1015.8 - 0.0 - - - - - - -
01/06:00pm 13.2 W 5 8 1015.6 - 0.0 - - - - - - -
01/05:30pm 14.2 WSW 5 10 1015.4 - 0.0 - - - - - - -
01/05:00pm 15.0 WSW 8 15 1015.3 - 0.0 - - - - - - -
01/04:30pm 15.7 WSW 8 13 1015.1 - 0.0 - - - - - - -
01/04:00pm 15.7 WSW 8 11 1015.1 - 0.0 - - - - - - -
01/03:30pm 15.6 WSW 12 18 1015.1 - 0.0 - - - - - - -
01/03:00pm 15.4 WSW 10 16 1014.8 - 0.0 - - - - - - -
01/02:30pm 16.0 SW 10 17 1014.5 - 0.0 - - - - - - -
01/02:00pm 16.2 SW 12 16 1014.5 - 0.0 - - - - - - -
01/01:30pm 16.5 WSW 11 19 1014.2 - 0.0 - - - - - - -
01/01:00pm 15.8 SW 13 22 1014.3 - 0.0 - - - - - - -
01/12:30pm 15.3 SW 13 19 1014.1 - 0.0 - - - - - - -
01/12:00pm 15.8 WSW 13 21 1014.2 - 0.0 - - - - - - -
01/11:30am 15.3 SW 12 20 1013.9 - 0.0 - - - - - - -
01/11:00am 14.2 SW 14 22 1013.7 - 0.0 - - - - - - -
01/10:30am 15.0 WSW 12 23 1013.1 - 0.0 - - - - - - -
01/10:00am 13.3 WSW 7 14 1012.9 - 0.0 - - - - - - -
01/09:30am 12.6 SW 15 22 1012.5 - 13.2 - - - - - - -
01/09:25am 13.1 SW 15 25 1012.4 - 13.2 - - - - - - -
01/09:00am 12.7 SW 10 18 1011.9 - 13.2 - - - - - - -
01/08:30am 10.5 WSW 12 18 1011.5 - 13.2 - - - - - - -
01/08:00am 12.0 WSW 10 17 1010.5 - 10.6 - - - - - - -
01/07:36am 12.1 WSW 14 27 1010.1 - 10.4 - - - - - - -
01/07:30am 12.9 W 12 19 1009.7 - 10.4 - - - - - - -
01/07:00am 11.7 WSW 8 13 1009.0 - 10.4 - - - - - - -
01/06:30am 11.8 SW 15 21 1008.2 - 10.4 Recent precip. - - - - - -
01/06:00am 10.9 WSW 13 23 1007.9 - 10.0 - - - - - - -
01/05:30am 11.9 WSW 11 19 1007.3 - 7.8 - - - - - - -
01/05:00am 11.2 W 12 23 1006.5 - 7.8 - - - - - - -

Other Formats:

Comma delimited format used in spreadsheet applications
http://www.bom.gov.au/fwo/IDV60701/IDV60701.95816.axf

JavaScript Object Notation format (JSON) in row-major order
http://www.bom.gov.au/fwo/IDV60701/IDV60701.95816.json